createdAt,value
2023-05-17T00:01:04.688Z,1.70
2023-05-17T00:02:11.204Z,1.80
2023-05-17T00:03:17.956Z,1.10
2023-05-17T00:04:24.639Z,1.60
2023-05-17T00:05:31.097Z,3.40
2023-05-17T00:06:37.511Z,2.20
2023-05-17T00:07:43.613Z,3.80
2023-05-17T00:08:49.711Z,1.70
2023-05-17T00:09:55.689Z,1.50
2023-05-17T00:11:02.273Z,2.20
2023-05-17T00:12:09.202Z,2.30
2023-05-17T00:13:15.746Z,2.40
2023-05-17T00:14:25.436Z,2.20
2023-05-17T00:15:32.224Z,2.30
2023-05-17T00:16:38.125Z,3.20
2023-05-17T00:17:44.077Z,1.90
2023-05-17T00:18:50.936Z,2.20
2023-05-17T00:19:56.867Z,1.90
2023-05-17T00:21:03.345Z,4.40
2023-05-17T00:22:09.916Z,3.00
2023-05-17T00:23:16.557Z,2.70
2023-05-17T00:24:22.896Z,3.00
2023-05-17T00:25:31.239Z,1.60
2023-05-17T00:26:37.737Z,1.10
2023-05-17T00:27:43.858Z,3.50
2023-05-17T00:28:50.659Z,2.20
2023-05-17T00:29:58.008Z,3.40
2023-05-17T00:31:04.548Z,2.20
2023-05-17T00:32:13.188Z,7.40
2023-05-17T00:34:24.848Z,2.60
2023-05-17T00:35:30.998Z,3.00
2023-05-17T00:36:37.072Z,3.50
2023-05-17T00:37:49.462Z,1.20
2023-05-17T00:38:55.511Z,2.30
2023-05-17T00:40:01.713Z,2.60
2023-05-17T00:41:08.630Z,1.40
2023-05-17T00:42:14.990Z,3.20
2023-05-17T00:43:21.311Z,1.80
2023-05-17T00:44:27.475Z,1.60
2023-05-17T00:45:42.020Z,2.50
2023-05-17T00:46:48.606Z,1.70
2023-05-17T00:47:54.860Z,1.50
2023-05-17T00:49:01.366Z,1.60
2023-05-17T00:50:09.079Z,3.00
2023-05-17T00:51:19.599Z,1.80
2023-05-17T00:52:26.755Z,3.50
2023-05-17T00:53:36.695Z,4.20
2023-05-17T00:54:44.565Z,2.00
2023-05-17T00:55:52.385Z,2.40
2023-05-17T00:57:02.600Z,2.00
2023-05-17T00:58:09.027Z,2.70
2023-05-17T00:59:15.755Z,3.20
2023-05-17T01:00:22.840Z,2.60
2023-05-17T01:01:29.226Z,4.20
2023-05-17T01:02:35.030Z,3.00
2023-05-17T01:03:43.392Z,4.70
2023-05-17T01:04:51.579Z,2.70
2023-05-17T01:05:57.735Z,2.00
2023-05-17T01:07:03.912Z,2.90
2023-05-17T01:08:09.850Z,2.70
2023-05-17T01:09:17.468Z,2.30
2023-05-17T01:10:29.024Z,1.60
2023-05-17T01:11:48.945Z,1.90
2023-05-17T01:13:04.954Z,3.40
2023-05-17T01:14:25.997Z,1.50
2023-05-17T01:15:36.917Z,2.20
2023-05-17T01:16:53.689Z,1.60
2023-05-17T01:18:11.693Z,3.20
2023-05-17T01:19:41.895Z,3.10
2023-05-17T01:20:50.204Z,1.10
2023-05-17T01:22:11.644Z,0.80
2023-05-17T01:23:34.386Z,1.50
2023-05-17T01:24:49.881Z,1.30
2023-05-17T01:26:04.629Z,2.80
2023-05-17T01:27:14.802Z,1.90
2023-05-17T01:28:23.649Z,1.40
2023-05-17T01:29:32.983Z,1.30
2023-05-17T01:30:41.960Z,2.30
2023-05-17T01:31:49.938Z,2.10
2023-05-17T01:32:59.421Z,0.70
2023-05-17T01:34:10.566Z,1.20
2023-05-17T01:35:18.333Z,1.90
2023-05-17T01:36:24.292Z,1.00
2023-05-17T01:37:30.696Z,3.00
2023-05-17T01:38:36.677Z,0.70
2023-05-17T01:39:43.483Z,0.90
2023-05-17T01:40:56.657Z,0.80
2023-05-17T01:42:13.449Z,1.70
2023-05-17T01:43:27.838Z,0.60
2023-05-17T01:44:44.375Z,1.20
2023-05-17T01:46:06.008Z,1.50
2023-05-17T01:47:18.762Z,1.10
2023-05-17T01:48:36.250Z,0.50
2023-05-17T01:49:47.424Z,0.60
2023-05-17T01:50:56.649Z,0.70
2023-05-17T01:52:09.252Z,1.60
2023-05-17T01:53:23.867Z,1.40
2023-05-17T01:54:37.428Z,0.80
2023-05-17T01:55:53.894Z,1.60
2023-05-17T01:57:05.555Z,0.60
2023-05-17T01:58:14.806Z,1.20
2023-05-17T01:59:25.555Z,0.50
2023-05-17T02:00:32.927Z,1.10
2023-05-17T02:01:39.937Z,2.30
2023-05-17T02:02:46.546Z,1.90
2023-05-17T02:03:53.453Z,0.90
2023-05-17T02:05:01.183Z,0.50
2023-05-17T02:06:10.454Z,0.80
2023-05-17T02:07:16.724Z,1.40
2023-05-17T02:08:22.913Z,0.80
2023-05-17T02:09:28.972Z,0.60
2023-05-17T02:10:35.405Z,1.90
2023-05-17T02:11:41.917Z,0.80
2023-05-17T02:12:48.914Z,0.70
2023-05-17T02:13:59.018Z,0.70
2023-05-17T02:15:08.605Z,0.80
2023-05-17T02:16:14.886Z,0.70
2023-05-17T02:17:21.124Z,1.20
2023-05-17T02:18:27.905Z,0.90
2023-05-17T02:19:35.822Z,1.80
2023-05-17T02:20:42.725Z,0.90
2023-05-17T02:21:48.868Z,1.20
2023-05-17T02:22:55.447Z,0.60
2023-05-17T02:24:03.876Z,1.50
2023-05-17T02:25:12.349Z,0.60
2023-05-17T02:26:18.912Z,0.60
2023-05-17T02:27:24.683Z,1.50
2023-05-17T02:28:30.974Z,3.60
2023-05-17T02:29:37.084Z,0.80
2023-05-17T02:30:44.991Z,0.60
2023-05-17T02:31:53.351Z,0.70
2023-05-17T02:32:59.627Z,0.80
2023-05-17T02:34:08.534Z,2.30
2023-05-17T02:35:16.159Z,1.60
2023-05-17T02:36:22.370Z,1.70
2023-05-17T02:37:28.857Z,1.30
2023-05-17T02:38:34.902Z,1.10
2023-05-17T02:39:41.465Z,0.80
2023-05-17T02:40:48.160Z,1.30
2023-05-17T02:41:54.212Z,0.50
2023-05-17T02:43:01.045Z,1.20
2023-05-17T02:44:07.585Z,1.40
2023-05-17T02:45:14.307Z,0.60
2023-05-17T02:46:22.301Z,1.10
2023-05-17T02:47:28.636Z,1.20
2023-05-17T02:48:34.860Z,0.90
2023-05-17T02:49:43.170Z,1.60
2023-05-17T02:50:49.835Z,1.50
2023-05-17T02:51:57.459Z,0.80
2023-05-17T02:53:04.536Z,3.00
2023-05-17T02:54:11.573Z,1.90
2023-05-17T02:55:18.352Z,0.90
2023-05-17T02:56:24.601Z,1.70
2023-05-17T02:57:30.619Z,1.50
2023-05-17T02:58:37.221Z,1.20
2023-05-17T02:59:43.493Z,2.20
2023-05-17T03:00:50.459Z,1.50
2023-05-17T03:01:57.790Z,2.50
2023-05-17T03:03:04.523Z,1.30
2023-05-17T03:04:11.040Z,1.00
2023-05-17T03:05:17.616Z,2.40
2023-05-17T03:06:23.714Z,1.20
2023-05-17T03:07:29.998Z,1.10
2023-05-17T03:08:35.980Z,1.30
2023-05-17T03:09:43.983Z,2.90
2023-05-17T03:10:50.128Z,1.00
2023-05-17T03:11:56.241Z,1.80
2023-05-17T03:13:02.324Z,1.70
2023-05-17T03:14:08.063Z,1.10
2023-05-17T03:15:18.325Z,0.80
2023-05-17T03:16:24.147Z,1.80
2023-05-17T03:17:30.592Z,1.90
2023-05-17T03:18:37.124Z,2.00
2023-05-17T03:19:43.814Z,1.70
2023-05-17T03:20:49.767Z,1.00
2023-05-17T03:21:56.056Z,1.60
2023-05-17T03:23:02.106Z,1.30
2023-05-17T03:24:09.243Z,2.50
2023-05-17T03:25:15.848Z,1.10
2023-05-17T03:26:24.264Z,1.90
2023-05-17T03:27:31.146Z,1.40
2023-05-17T03:28:37.135Z,1.00
2023-05-17T03:29:43.209Z,0.90
2023-05-17T03:30:49.297Z,2.60
2023-05-17T03:31:56.487Z,1.80
2023-05-17T03:33:02.337Z,2.20
2023-05-17T03:34:08.758Z,2.30
2023-05-17T03:35:15.349Z,2.10
2023-05-17T03:36:21.518Z,1.70
2023-05-17T03:37:27.922Z,2.50
2023-05-17T03:38:34.337Z,2.40
2023-05-17T03:39:41.038Z,5.60
2023-05-17T03:40:47.232Z,1.30
2023-05-17T03:41:55.468Z,1.30
2023-05-17T03:43:04.389Z,2.60
2023-05-17T03:44:10.848Z,1.80
2023-05-17T03:45:17.507Z,1.90
2023-05-17T03:46:23.544Z,1.10
2023-05-17T03:47:29.618Z,2.50
2023-05-17T03:48:36.168Z,1.90
2023-05-17T03:49:43.569Z,1.00
2023-05-17T03:50:49.782Z,1.40
2023-05-17T03:51:56.862Z,1.20
2023-05-17T03:53:02.899Z,1.80
2023-05-17T03:54:09.402Z,2.30
2023-05-17T03:55:15.651Z,1.10
2023-05-17T03:56:21.454Z,1.30
2023-05-17T03:57:27.306Z,1.70
2023-05-17T03:58:34.506Z,2.90
2023-05-17T03:59:40.827Z,2.00
2023-05-17T04:00:46.927Z,0.90
2023-05-17T04:01:52.970Z,2.70
2023-05-17T04:02:59.959Z,2.70
2023-05-17T04:04:07.581Z,2.00
2023-05-17T04:05:14.359Z,0.90
2023-05-17T04:06:20.814Z,1.40
2023-05-17T04:07:26.821Z,1.40
2023-05-17T04:08:33.223Z,2.90
2023-05-17T04:09:39.654Z,1.00
2023-05-17T04:10:45.798Z,2.70
2023-05-17T04:11:51.967Z,1.40
2023-05-17T04:12:58.424Z,1.30
2023-05-17T04:14:07.325Z,1.40
2023-05-17T04:15:14.421Z,1.40
2023-05-17T04:16:21.191Z,1.50
2023-05-17T04:17:27.270Z,2.60
2023-05-17T04:18:36.844Z,1.30
2023-05-17T04:19:42.802Z,1.60
2023-05-17T04:20:48.674Z,0.80
2023-05-17T04:21:54.946Z,1.80
2023-05-17T04:23:02.376Z,1.50
2023-05-17T04:24:08.980Z,2.40
2023-05-17T04:25:15.218Z,2.30
2023-05-17T04:26:21.148Z,1.40
2023-05-17T04:27:28.061Z,1.00
2023-05-17T04:28:35.240Z,1.60
2023-05-17T04:29:41.594Z,1.10
2023-05-17T04:30:48.223Z,0.70
2023-05-17T04:31:54.307Z,1.40
2023-05-17T04:33:01.444Z,1.80
2023-05-17T04:34:08.406Z,1.20
2023-05-17T04:35:14.866Z,2.20
2023-05-17T04:36:20.938Z,1.90
2023-05-17T04:37:27.958Z,2.30
2023-05-17T04:38:33.658Z,1.60
2023-05-17T04:39:42.543Z,2.00
2023-05-17T04:40:48.524Z,1.50
2023-05-17T04:41:54.629Z,4.30
2023-05-17T04:43:00.811Z,1.50
2023-05-17T04:44:08.631Z,1.30
2023-05-17T04:45:19.274Z,0.90
2023-05-17T04:46:26.054Z,0.90
2023-05-17T04:47:32.198Z,1.30
2023-05-17T04:48:40.315Z,0.70
2023-05-17T04:49:46.630Z,0.90
2023-05-17T04:50:54.215Z,2.40
2023-05-17T04:52:02.498Z,2.10
2023-05-17T04:53:11.040Z,0.90
2023-05-17T04:54:18.196Z,2.00
2023-05-17T04:55:25.269Z,1.40
2023-05-17T04:56:32.574Z,2.50
2023-05-17T04:57:38.608Z,1.20
2023-05-17T04:58:44.848Z,3.50
2023-05-17T04:59:51.822Z,1.20
2023-05-17T05:00:57.900Z,1.50
2023-05-17T05:02:03.731Z,1.10
2023-05-17T05:03:10.099Z,3.10
2023-05-17T05:04:16.896Z,1.20
2023-05-17T05:05:27.782Z,1.90
2023-05-17T05:06:41.053Z,1.20
2023-05-17T05:07:49.126Z,1.80
2023-05-17T05:08:56.648Z,4.30
2023-05-17T05:10:05.033Z,1.70
2023-05-17T05:11:11.376Z,1.50
2023-05-17T05:12:19.096Z,1.10
2023-05-17T05:13:25.612Z,2.40
2023-05-17T05:14:31.767Z,1.50
2023-05-17T05:15:37.931Z,4.80
2023-05-17T05:16:44.412Z,3.70
2023-05-17T05:17:51.230Z,1.20
2023-05-17T05:18:59.724Z,2.50
2023-05-17T05:21:12.629Z,4.90
2023-05-17T05:22:19.956Z,2.00
2023-05-17T05:23:27.125Z,2.00
2023-05-17T05:24:32.891Z,2.40
2023-05-17T05:25:40.771Z,2.10
2023-05-17T05:26:47.320Z,1.80
2023-05-17T05:27:53.437Z,2.60
2023-05-17T05:28:59.769Z,2.60
2023-05-17T05:30:09.770Z,1.20
2023-05-17T05:31:16.289Z,1.80
2023-05-17T05:32:23.571Z,2.00
2023-05-17T05:33:30.144Z,1.60
2023-05-17T05:34:36.451Z,2.20
2023-05-17T05:35:43.540Z,1.40
2023-05-17T05:36:49.734Z,1.70
2023-05-17T05:37:55.993Z,1.00
2023-05-17T05:39:03.953Z,1.90
2023-05-17T05:40:15.133Z,2.40
2023-05-17T05:41:21.756Z,1.50
2023-05-17T05:42:30.583Z,1.90
2023-05-17T05:44:43.827Z,2.10
2023-05-17T05:45:50.624Z,2.00
2023-05-17T05:46:57.785Z,3.40
2023-05-17T05:48:05.678Z,1.30
2023-05-17T05:49:12.223Z,1.10
2023-05-17T05:50:21.354Z,1.50
2023-05-17T05:51:29.772Z,1.80
2023-05-17T05:52:35.999Z,1.70
2023-05-17T05:53:43.038Z,2.80
2023-05-17T05:54:50.045Z,2.00
2023-05-17T05:55:57.203Z,3.40
2023-05-17T05:57:04.383Z,2.50
2023-05-17T05:58:10.502Z,1.20
2023-05-17T05:59:17.291Z,2.30
2023-05-17T06:00:24.816Z,1.00
2023-05-17T06:01:30.634Z,3.40
2023-05-17T06:02:37.726Z,1.30
2023-05-17T06:03:43.792Z,1.20
2023-05-17T06:04:50.136Z,2.60
2023-05-17T06:05:57.474Z,3.30
2023-05-17T06:07:07.219Z,1.80
2023-05-17T06:08:13.822Z,2.00
2023-05-17T06:09:20.352Z,1.90
2023-05-17T06:10:27.234Z,2.00
2023-05-17T06:11:34.617Z,1.40
2023-05-17T06:12:41.311Z,1.90
2023-05-17T06:13:47.626Z,2.70
2023-05-17T06:14:54.317Z,2.60
2023-05-17T06:16:00.792Z,1.30
2023-05-17T06:17:08.756Z,2.40
2023-05-17T06:18:15.184Z,1.30
2023-05-17T06:19:21.492Z,2.40
2023-05-17T06:20:28.051Z,1.40
2023-05-17T06:21:34.742Z,1.10
2023-05-17T06:22:40.919Z,2.90
2023-05-17T06:23:46.765Z,2.30
2023-05-17T06:24:53.721Z,2.70
2023-05-17T06:26:00.424Z,2.30
2023-05-17T06:27:07.907Z,4.10
2023-05-17T06:28:14.081Z,1.70
2023-05-17T06:29:20.841Z,2.70
2023-05-17T06:30:27.777Z,2.40
2023-05-17T06:31:35.010Z,3.50
2023-05-17T06:32:43.366Z,2.60
2023-05-17T06:33:51.908Z,2.10
2023-05-17T06:34:58.942Z,1.10
2023-05-17T06:36:08.333Z,3.30
2023-05-17T06:37:14.470Z,3.60
2023-05-17T06:38:20.590Z,1.60
2023-05-17T06:39:26.865Z,2.20
2023-05-17T06:40:33.060Z,1.50
2023-05-17T06:41:39.726Z,2.40
2023-05-17T06:42:46.410Z,5.90
2023-05-17T06:43:52.812Z,1.80
2023-05-17T06:44:59.382Z,2.90
2023-05-17T06:46:06.137Z,2.30
2023-05-17T06:47:12.736Z,2.60
2023-05-17T06:48:19.175Z,1.80
2023-05-17T06:49:25.527Z,3.70
2023-05-17T06:50:33.350Z,2.30
2023-05-17T06:52:44.482Z,1.90
2023-05-17T06:53:50.560Z,2.00
2023-05-17T06:54:56.415Z,2.90
2023-05-17T06:56:02.966Z,3.70
2023-05-17T06:57:13.677Z,2.70
2023-05-17T06:58:20.542Z,2.00
2023-05-17T06:59:26.596Z,3.30
2023-05-17T07:00:33.194Z,2.90
2023-05-17T07:01:39.912Z,4.50
2023-05-17T07:02:46.511Z,3.40
2023-05-17T07:03:54.529Z,1.90
2023-05-17T07:05:01.492Z,4.30
2023-05-17T07:06:09.131Z,3.30
2023-05-17T07:07:14.925Z,3.60
2023-05-17T07:08:21.274Z,2.20
2023-05-17T07:09:27.687Z,1.70
2023-05-17T07:10:36.120Z,2.50
2023-05-17T07:11:42.343Z,3.00
2023-05-17T07:12:49.544Z,2.70
2023-05-17T07:13:58.665Z,2.10
2023-05-17T07:15:06.071Z,1.30
2023-05-17T07:16:12.003Z,3.90
2023-05-17T07:17:18.130Z,3.10
2023-05-17T07:18:25.797Z,1.50
2023-05-17T07:19:31.843Z,2.60
2023-05-17T07:20:38.980Z,1.60
2023-05-17T07:21:46.357Z,3.20
2023-05-17T07:22:52.801Z,1.50
2023-05-17T07:24:00.181Z,1.10
2023-05-17T07:25:09.394Z,4.60
2023-05-17T07:26:15.976Z,2.90
2023-05-17T07:27:22.313Z,2.30
2023-05-17T07:28:32.779Z,1.30
2023-05-17T07:29:40.259Z,2.60
2023-05-17T07:30:48.712Z,1.50
2023-05-17T07:31:54.732Z,1.30
2023-05-17T07:33:00.898Z,2.00
2023-05-17T07:34:07.319Z,0.60
2023-05-17T07:35:14.064Z,0.80
2023-05-17T07:36:21.101Z,2.70
2023-05-17T07:37:28.087Z,0.80
2023-05-17T07:38:37.265Z,0.80
2023-05-17T07:39:43.685Z,1.10
2023-05-17T07:40:49.650Z,2.10
2023-05-17T07:41:57.625Z,1.40
2023-05-17T07:43:04.006Z,1.90
2023-05-17T07:44:10.622Z,2.20
2023-05-17T07:45:18.666Z,1.50
2023-05-17T07:46:24.684Z,0.90
2023-05-17T07:47:33.729Z,1.50
2023-05-17T07:48:42.387Z,1.80
2023-05-17T07:49:48.775Z,1.50
2023-05-17T07:50:55.051Z,1.00
2023-05-17T07:52:04.214Z,1.70
2023-05-17T07:53:16.976Z,1.80
2023-05-17T07:54:30.088Z,1.20
2023-05-17T07:55:36.422Z,0.80
2023-05-17T07:56:43.105Z,1.90
2023-05-17T07:57:49.060Z,1.50
2023-05-17T07:58:55.317Z,1.40
2023-05-17T08:00:01.583Z,1.00
2023-05-17T08:01:12.015Z,1.00
2023-05-17T08:02:17.878Z,2.40
2023-05-17T08:03:25.470Z,2.70
2023-05-17T08:04:32.960Z,0.60
2023-05-17T08:05:39.062Z,1.30
2023-05-17T08:06:48.703Z,3.40
2023-05-17T08:08:00.332Z,1.90
2023-05-17T08:09:06.574Z,2.10
2023-05-17T08:10:13.791Z,1.00
2023-05-17T08:11:19.806Z,2.00
2023-05-17T08:12:26.191Z,1.10
2023-05-17T08:13:32.650Z,2.30
2023-05-17T08:14:39.599Z,1.40
2023-05-17T08:15:48.002Z,1.40
2023-05-17T08:16:57.154Z,1.30
2023-05-17T08:18:04.813Z,1.30
2023-05-17T08:19:15.569Z,1.00
2023-05-17T08:20:22.247Z,1.20
2023-05-17T08:21:28.712Z,0.80
2023-05-17T08:22:34.906Z,1.80
2023-05-17T08:23:42.261Z,1.80
2023-05-17T08:24:49.008Z,1.40
2023-05-17T08:25:55.613Z,2.20
2023-05-17T08:27:02.624Z,0.80
2023-05-17T08:28:08.695Z,3.10
2023-05-17T08:29:14.625Z,1.90
2023-05-17T08:30:28.891Z,1.00
2023-05-17T08:31:37.075Z,2.80
2023-05-17T08:32:43.162Z,2.10
2023-05-17T08:33:48.951Z,2.40
2023-05-17T08:34:56.163Z,2.50
2023-05-17T08:36:09.401Z,2.00
2023-05-17T08:37:15.545Z,2.30
2023-05-17T08:38:21.416Z,3.50
2023-05-17T08:39:27.705Z,3.80
2023-05-17T08:40:33.612Z,2.50
2023-05-17T08:41:40.316Z,4.00
2023-05-17T08:42:46.995Z,2.50
2023-05-17T08:43:54.700Z,2.70
2023-05-17T08:45:01.070Z,2.20
2023-05-17T08:46:07.523Z,6.30
2023-05-17T08:47:26.778Z,3.20
2023-05-17T08:48:42.083Z,3.00
2023-05-17T08:49:48.501Z,2.30
2023-05-17T08:50:58.251Z,3.50
2023-05-17T08:52:10.192Z,2.80
2023-05-17T08:53:16.815Z,3.40
2023-05-17T08:54:23.525Z,1.60
2023-05-17T08:55:34.425Z,1.70
2023-05-17T08:56:46.103Z,2.40
2023-05-17T08:57:53.522Z,2.60
2023-05-17T08:59:02.278Z,2.90
2023-05-17T09:00:15.494Z,2.40
2023-05-17T09:01:25.106Z,1.40
2023-05-17T09:02:42.141Z,1.40
2023-05-17T09:03:50.261Z,1.70
2023-05-17T09:04:58.053Z,1.40
2023-05-17T09:06:06.624Z,1.50
2023-05-17T09:07:14.669Z,5.40
2023-05-17T09:08:25.548Z,1.90
2023-05-17T09:09:31.566Z,3.60
2023-05-17T09:10:37.964Z,3.40
2023-05-17T09:11:44.008Z,3.00
2023-05-17T09:12:50.833Z,3.20
2023-05-17T09:14:00.274Z,1.70
2023-05-17T09:15:19.203Z,2.10
2023-05-17T09:16:38.622Z,3.20
2023-05-17T09:17:50.914Z,2.10
2023-05-17T09:18:58.914Z,4.90
2023-05-17T09:20:09.146Z,4.30
2023-05-17T09:21:15.392Z,3.80
2023-05-17T09:22:22.402Z,3.50
2023-05-17T09:23:31.524Z,5.00
2023-05-17T09:24:41.095Z,2.50
2023-05-17T09:25:51.677Z,2.30
2023-05-17T09:27:04.309Z,3.90
2023-05-17T09:28:10.292Z,3.20
2023-05-17T09:29:19.948Z,4.80
2023-05-17T09:30:33.182Z,1.70
2023-05-17T09:31:47.392Z,3.20
2023-05-17T09:32:54.174Z,2.90
2023-05-17T09:34:04.148Z,4.40
2023-05-17T09:35:14.660Z,4.00
2023-05-17T09:36:23.278Z,3.20
2023-05-17T09:37:29.840Z,3.40
2023-05-17T09:38:36.231Z,6.50
2023-05-17T09:39:46.558Z,5.40
2023-05-17T09:40:53.954Z,4.50
2023-05-17T09:42:00.057Z,3.00
2023-05-17T09:43:07.815Z,3.10
2023-05-17T09:44:17.052Z,2.90
2023-05-17T09:45:27.104Z,5.50
2023-05-17T09:46:36.962Z,4.20
2023-05-17T09:47:43.494Z,4.40
2023-05-17T09:48:57.102Z,5.10
2023-05-17T09:50:05.058Z,2.60
2023-05-17T09:51:12.055Z,2.70
2023-05-17T09:52:21.289Z,3.90
2023-05-17T09:54:41.388Z,3.20
2023-05-17T09:55:50.457Z,3.10
2023-05-17T09:56:59.903Z,3.50
2023-05-17T09:58:08.127Z,4.00
2023-05-17T09:59:16.230Z,2.40
2023-05-17T10:00:24.707Z,3.60
2023-05-17T10:01:32.474Z,5.00
2023-05-17T10:02:41.817Z,3.60
2023-05-17T10:03:51.534Z,4.10
2023-05-17T10:05:00.597Z,3.50
2023-05-17T10:06:16.603Z,2.40
2023-05-17T10:07:41.870Z,2.90
2023-05-17T10:08:54.373Z,5.80
2023-05-17T10:10:00.268Z,3.90
2023-05-17T10:11:10.161Z,3.40
2023-05-17T10:12:23.796Z,5.40
2023-05-17T10:13:37.952Z,3.40
2023-05-17T10:14:47.359Z,4.30
2023-05-17T10:15:55.679Z,3.40
2023-05-17T10:17:03.701Z,1.80
2023-05-17T10:18:12.154Z,2.50
2023-05-17T10:19:20.970Z,4.80
2023-05-17T10:20:28.788Z,3.80
2023-05-17T10:21:35.766Z,2.30
2023-05-17T10:22:42.664Z,3.10
2023-05-17T10:23:51.355Z,3.50
2023-05-17T10:25:00.491Z,2.00
2023-05-17T10:26:07.598Z,3.50
2023-05-17T10:27:15.860Z,4.40
2023-05-17T10:28:22.104Z,3.90
2023-05-17T10:29:31.523Z,2.40
2023-05-17T10:30:38.968Z,3.30
2023-05-17T10:31:47.204Z,2.60
2023-05-17T10:32:58.935Z,3.20
2023-05-17T10:34:09.275Z,3.50
2023-05-17T10:35:18.256Z,2.60
2023-05-17T10:36:26.348Z,2.80
2023-05-17T10:37:34.849Z,3.20
2023-05-17T10:38:43.080Z,3.00
2023-05-17T10:39:52.295Z,2.80
2023-05-17T10:43:22.277Z,2.40
2023-05-17T10:44:31.904Z,3.20
2023-05-17T10:45:39.422Z,2.50
2023-05-17T10:46:56.601Z,2.20
2023-05-17T10:48:08.138Z,3.30
2023-05-17T10:49:14.306Z,4.30
2023-05-17T10:50:27.513Z,4.20
2023-05-17T10:51:36.481Z,5.60
2023-05-17T10:54:12.530Z,6.20
2023-05-17T10:55:25.223Z,5.00
2023-05-17T10:56:32.173Z,7.30
2023-05-17T10:59:23.918Z,5.00
2023-05-17T11:00:34.621Z,5.50
2023-05-17T11:02:00.460Z,7.70
2023-05-17T11:03:18.086Z,5.40
2023-05-17T11:04:28.567Z,4.50
2023-05-17T11:05:35.479Z,7.20
2023-05-17T11:06:42.725Z,5.00
2023-05-17T11:07:50.317Z,4.30
2023-05-17T11:09:19.851Z,5.00
2023-05-17T11:10:26.520Z,4.90
2023-05-17T11:11:32.672Z,5.20
2023-05-17T11:12:43.117Z,5.30
2023-05-17T11:13:54.076Z,7.10
2023-05-17T11:15:00.526Z,7.10
2023-05-17T11:16:08.463Z,7.80
2023-05-17T11:17:19.683Z,8.40
2023-05-17T11:18:31.335Z,4.60
2023-05-17T11:19:49.711Z,5.90
2023-05-17T11:21:09.403Z,6.80
2023-05-17T11:22:17.525Z,5.40
2023-05-17T11:23:30.218Z,4.90
2023-05-17T11:24:39.519Z,3.00
2023-05-17T11:25:48.705Z,3.40
2023-05-17T11:26:58.195Z,3.20
2023-05-17T11:28:10.030Z,4.50
2023-05-17T11:29:18.361Z,4.70
2023-05-17T11:30:28.982Z,5.30
2023-05-17T11:31:36.932Z,3.90
2023-05-17T11:32:52.727Z,4.60
2023-05-17T11:34:02.783Z,3.90
2023-05-17T11:35:13.142Z,2.90
2023-05-17T11:36:23.659Z,2.30
2023-05-17T11:37:30.310Z,4.10
2023-05-17T11:38:37.037Z,4.30
2023-05-17T11:40:05.071Z,9.10
2023-05-17T11:41:27.079Z,5.70
2023-05-17T11:42:38.496Z,4.10
2023-05-17T11:43:49.191Z,5.60
2023-05-17T11:45:01.141Z,4.70
2023-05-17T11:46:08.232Z,3.70
2023-05-17T11:47:24.824Z,3.70
2023-05-17T11:48:32.228Z,5.60
2023-05-17T11:49:40.972Z,5.30
2023-05-17T11:50:50.158Z,5.00
2023-05-17T11:51:56.182Z,5.90
2023-05-17T11:53:04.164Z,6.40
2023-05-17T11:54:14.781Z,2.50
2023-05-17T11:55:21.498Z,4.10
2023-05-17T11:56:42.693Z,6.30
2023-05-17T11:57:53.454Z,4.00
2023-05-17T11:59:00.283Z,3.60
2023-05-17T12:00:09.901Z,4.30
2023-05-17T12:01:15.941Z,4.60
2023-05-17T12:02:32.992Z,3.60
2023-05-17T12:03:39.318Z,4.80
2023-05-17T12:04:45.119Z,4.50
2023-05-17T12:06:02.985Z,5.40
2023-05-17T12:07:11.945Z,4.40
2023-05-17T12:08:19.817Z,7.20
2023-05-17T12:09:27.032Z,4.50
2023-05-17T12:10:34.762Z,6.50
2023-05-17T12:11:44.971Z,5.80
2023-05-17T12:12:51.121Z,5.40
2023-05-17T12:13:57.031Z,4.90
2023-05-17T12:15:03.893Z,6.80
2023-05-17T12:16:17.480Z,8.80
2023-05-17T12:17:38.240Z,7.60
2023-05-17T12:18:48.038Z,6.00
2023-05-17T12:19:56.144Z,8.70
2023-05-17T12:21:03.878Z,8.80
2023-05-17T12:22:13.034Z,6.80
2023-05-17T12:23:26.695Z,5.40
2023-05-17T12:24:42.429Z,5.70
2023-05-17T12:25:48.544Z,6.60
2023-05-17T12:26:54.778Z,7.70
2023-05-17T12:29:40.189Z,6.40
2023-05-17T12:31:54.721Z,5.20
2023-05-17T12:33:00.756Z,6.40
2023-05-17T12:34:09.848Z,6.30
2023-05-17T12:35:17.756Z,6.40
2023-05-17T12:36:25.540Z,3.10
2023-05-17T12:37:32.263Z,6.60
2023-05-17T12:38:40.027Z,4.00
2023-05-17T12:39:47.255Z,3.60
2023-05-17T12:40:53.481Z,4.60
2023-05-17T12:42:02.613Z,3.90
2023-05-17T12:43:12.864Z,5.70
2023-05-17T12:44:20.649Z,6.70
2023-05-17T12:45:26.821Z,5.30
2023-05-17T12:46:35.465Z,5.90
2023-05-17T12:47:41.493Z,4.00
2023-05-17T12:48:51.954Z,4.70
2023-05-17T12:50:00.072Z,3.70
2023-05-17T12:51:12.258Z,5.70
2023-05-17T12:52:20.624Z,5.00
2023-05-17T12:53:35.589Z,7.80
2023-05-17T12:54:43.258Z,7.50
2023-05-17T12:55:49.688Z,3.80
2023-05-17T12:56:57.338Z,7.70
2023-05-17T12:58:07.753Z,4.00
2023-05-17T12:59:21.308Z,6.30
2023-05-17T13:00:30.440Z,9.10
2023-05-17T13:01:40.008Z,5.80
2023-05-17T13:02:46.566Z,10.30
2023-05-17T13:03:53.940Z,4.60
2023-05-17T13:05:13.462Z,5.70
2023-05-17T13:06:19.999Z,6.60
2023-05-17T13:07:26.051Z,7.70
2023-05-17T13:08:32.989Z,3.50
2023-05-17T13:09:49.009Z,5.40
2023-05-17T13:11:07.116Z,4.10
2023-05-17T13:12:18.403Z,5.40
2023-05-17T13:13:24.135Z,3.50
2023-05-17T13:14:39.213Z,5.30
2023-05-17T13:15:50.193Z,3.20
2023-05-17T13:16:57.205Z,6.00
2023-05-17T13:18:16.514Z,5.90
2023-05-17T13:19:22.359Z,5.60
2023-05-17T13:20:29.272Z,6.80
2023-05-17T13:21:38.023Z,6.30
2023-05-17T13:22:48.457Z,6.60
2023-05-17T13:23:56.089Z,5.10
2023-05-17T13:25:03.323Z,5.90
2023-05-17T13:26:09.873Z,6.40
2023-05-17T13:27:17.183Z,6.30
2023-05-17T13:28:25.373Z,5.90
2023-05-17T13:29:39.490Z,6.60
2023-05-17T13:30:52.435Z,5.80
2023-05-17T13:31:59.000Z,6.10
2023-05-17T13:33:06.545Z,7.40
2023-05-17T13:34:12.734Z,5.50
2023-05-17T13:35:18.571Z,7.60
2023-05-17T13:36:25.554Z,8.30
2023-05-17T13:37:31.649Z,8.20
2023-05-17T13:38:37.687Z,5.30
2023-05-17T13:39:46.189Z,7.30
2023-05-17T13:40:52.631Z,6.40
2023-05-17T13:42:00.199Z,6.70
2023-05-17T13:43:07.955Z,5.10
2023-05-17T13:44:16.660Z,5.90
2023-05-17T13:45:24.000Z,4.90
2023-05-17T13:46:29.800Z,6.90
2023-05-17T13:47:36.121Z,6.30
2023-05-17T13:48:42.985Z,4.40
2023-05-17T13:49:49.685Z,4.30
2023-05-17T13:50:56.360Z,4.30
2023-05-17T13:52:02.207Z,6.10
2023-05-17T13:53:08.495Z,4.70
2023-05-17T13:54:14.504Z,7.90
2023-05-17T13:55:20.556Z,3.00
2023-05-17T13:56:26.955Z,4.90
2023-05-17T13:57:33.396Z,5.30
2023-05-17T13:58:39.334Z,5.60
2023-05-17T13:59:46.832Z,5.30
2023-05-17T14:00:53.984Z,4.00
2023-05-17T14:02:01.571Z,4.80
2023-05-17T14:03:07.531Z,3.40
2023-05-17T14:04:14.057Z,4.60
2023-05-17T14:05:20.294Z,5.40
2023-05-17T14:06:26.431Z,5.20
2023-05-17T14:07:32.397Z,3.70
2023-05-17T14:08:38.190Z,5.10
2023-05-17T14:09:43.989Z,7.50
2023-05-17T14:10:50.490Z,5.00
2023-05-17T14:11:57.435Z,5.60
2023-05-17T14:13:08.517Z,5.50
2023-05-17T14:14:16.737Z,4.50
2023-05-17T14:15:25.633Z,7.50
2023-05-17T14:16:33.961Z,4.60
2023-05-17T14:17:40.174Z,4.20
2023-05-17T14:18:46.481Z,5.60
2023-05-17T14:19:52.822Z,6.50
2023-05-17T14:20:59.322Z,5.10
2023-05-17T14:22:06.518Z,8.30
2023-05-17T14:23:12.472Z,8.70
2023-05-17T14:24:18.352Z,10.70
2023-05-17T14:25:25.448Z,8.40
2023-05-17T14:26:31.997Z,6.40
2023-05-17T14:27:38.449Z,7.40
2023-05-17T14:28:46.026Z,8.40
2023-05-17T14:29:52.089Z,9.70
2023-05-17T14:30:58.653Z,10.60
2023-05-17T14:32:05.695Z,7.00
2023-05-17T14:33:14.233Z,7.80
2023-05-17T14:35:28.612Z,5.50
2023-05-17T14:36:37.412Z,6.70
2023-05-17T14:37:43.640Z,5.10
2023-05-17T14:38:50.308Z,7.10
2023-05-17T14:40:05.834Z,8.80
2023-05-17T14:41:13.865Z,8.90
2023-05-17T14:42:20.880Z,6.20
2023-05-17T14:43:27.583Z,6.80
2023-05-17T14:44:34.776Z,5.70
2023-05-17T14:45:44.264Z,6.40
2023-05-17T14:46:51.057Z,7.80
2023-05-17T14:47:57.237Z,8.40
2023-05-17T14:49:11.825Z,6.60
2023-05-17T14:50:19.474Z,4.20
2023-05-17T14:51:25.413Z,7.10
2023-05-17T14:52:31.684Z,5.00
2023-05-17T14:53:37.759Z,6.10
2023-05-17T14:54:44.516Z,7.90
2023-05-17T14:55:50.881Z,5.70
2023-05-17T14:56:57.454Z,6.60
2023-05-17T14:58:03.603Z,8.60
2023-05-17T14:59:09.847Z,5.80
2023-05-17T15:00:17.729Z,7.40
2023-05-17T15:01:23.991Z,6.20
2023-05-17T15:02:30.097Z,9.80
2023-05-17T15:03:36.643Z,9.40
2023-05-17T15:04:42.832Z,7.10
2023-05-17T15:05:56.090Z,6.20
2023-05-17T15:07:02.050Z,6.50
2023-05-17T15:08:10.989Z,8.80
2023-05-17T15:09:22.914Z,10.00
2023-05-17T15:10:30.051Z,8.30
2023-05-17T15:11:36.609Z,5.90
2023-05-17T15:12:42.837Z,10.50
2023-05-17T15:13:48.925Z,7.20
2023-05-17T15:14:54.709Z,5.50
2023-05-17T15:16:01.808Z,8.30
2023-05-17T15:17:08.380Z,7.90
2023-05-17T15:18:15.693Z,5.00
2023-05-17T15:19:22.251Z,6.50
2023-05-17T15:20:28.607Z,7.50
2023-05-17T15:21:34.808Z,6.00
2023-05-17T15:22:40.550Z,7.30
2023-05-17T15:23:48.515Z,6.20